Hot Springs, Montana
Current Conditions -  °F | °C
As of 8:17 PM on Tuesday 25 Nov 2014 (Local Time) from KMLP Reporting Station
Light Snow Light Snow  
Wind Chill: 18°   Ceiling: 1800
Heat Index: 26°   Visibility: 1.7mi
Dew Point: 23°   Wind: 7mph
Humidity: 88%   Direction: 160°SSE
Pressure: 30.07"   Gusts: NA
Location:  47.61°N, 114.67°W
Report Text: KMLP 260317Z AUTO 16006KT 1 3/4SM -SN BR OVC018 M03/M05 A3007 RMK AO2 P0001 T10331050
Loading
Personal Weather Stations






























Interactive Weather Map New forecast layout! Learn more

10-Day Weather Forecast

Advertisements
Track Severe Weather on mobile